Sign in

Links

Info

Aviation weather

METAR KDAB 171153Z 00000KT 10SM FEW040 FEW150 FEW250 09/08 A3025 RMK AO2 SLP241 T00890078 10111 20078 53004

TAF KDAB 171149Z 1712/1812 33005KT P6SM FEW060 FM171800 31012KT P6SM SKC

Aviation weather from ADDS. Re-check weather before flight.

-